sensor_id;sensor_type;location;lat;lon;timestamp;P1;durP1;ratioP1;P2;durP2;ratioP2
42742;SDS011;28397;44.552;-0.848;2023-04-29T00:01:25;1.90;;;1.35;;
42742;SDS011;28397;44.552;-0.848;2023-04-29T00:03:50;3.33;;;1.30;;
42742;SDS011;28397;44.552;-0.848;2023-04-29T00:06:16;3.20;;;1.10;;
42742;SDS011;28397;44.552;-0.848;2023-04-29T00:08:42;2.10;;;1.23;;
42742;SDS011;28397;44.552;-0.848;2023-04-29T00:11:08;1.70;;;1.20;;
42742;SDS011;28397;44.552;-0.848;2023-04-29T00:13:35;2.13;;;1.25;;
42742;SDS011;28397;44.552;-0.848;2023-04-29T00:16:02;1.30;;;1.15;;
42742;SDS011;28397;44.552;-0.848;2023-04-29T00:18:29;1.50;;;1.25;;
42742;SDS011;28397;44.552;-0.848;2023-04-29T00:20:56;2.10;;;1.23;;
42742;SDS011;28397;44.552;-0.848;2023-04-29T00:23:22;1.25;;;1.10;;
42742;SDS011;28397;44.552;-0.848;2023-04-29T00:25:47;2.55;;;1.40;;
42742;SDS011;28397;44.552;-0.848;2023-04-29T00:28:14;1.20;;;1.10;;
42742;SDS011;28397;44.552;-0.848;2023-04-29T00:30:39;1.52;;;1.10;;
42742;SDS011;28397;44.552;-0.848;2023-04-29T00:33:05;2.90;;;1.20;;
42742;SDS011;28397;44.552;-0.848;2023-04-29T00:35:31;1.55;;;1.17;;
42742;SDS011;28397;44.552;-0.848;2023-04-29T00:37:57;1.70;;;1.20;;
42742;SDS011;28397;44.552;-0.848;2023-04-29T00:40:22;3.20;;;1.20;;
42742;SDS011;28397;44.552;-0.848;2023-04-29T00:42:48;1.50;;;1.10;;
42742;SDS011;28397;44.552;-0.848;2023-04-29T00:45:13;1.85;;;1.00;;
42742;SDS011;28397;44.552;-0.848;2023-04-29T00:47:39;2.25;;;1.10;;
42742;SDS011;28397;44.552;-0.848;2023-04-29T00:50:06;1.10;;;1.00;;
42742;SDS011;28397;44.552;-0.848;2023-04-29T00:52:33;1.20;;;0.90;;
42742;SDS011;28397;44.552;-0.848;2023-04-29T00:54:59;2.55;;;1.08;;
42742;SDS011;28397;44.552;-0.848;2023-04-29T00:57:25;2.70;;;1.08;;
42742;SDS011;28397;44.552;-0.848;2023-04-29T00:59:57;1.80;;;0.90;;
42742;SDS011;28397;44.552;-0.848;2023-04-29T01:02:23;2.33;;;0.98;;
42742;SDS011;28397;44.552;-0.848;2023-04-29T01:04:50;1.58;;;1.10;;
42742;SDS011;28397;44.552;-0.848;2023-04-29T01:07:17;2.40;;;1.08;;
42742;SDS011;28397;44.552;-0.848;2023-04-29T01:17:54;1.67;;;1.10;;
42742;SDS011;28397;44.552;-0.848;2023-04-29T01:20:24;1.40;;;1.10;;
42742;SDS011;28397;44.552;-0.848;2023-04-29T01:22:50;2.28;;;1.02;;
42742;SDS011;28397;44.552;-0.848;2023-04-29T01:25:16;1.85;;;1.10;;
42742;SDS011;28397;44.552;-0.848;2023-04-29T01:27:47;1.15;;;1.00;;
42742;SDS011;28397;44.552;-0.848;2023-04-29T01:30:47;3.00;;;1.08;;
42742;SDS011;28397;44.552;-0.848;2023-04-29T01:41:42;1.45;;;1.00;;
42742;SDS011;28397;44.552;-0.848;2023-04-29T01:44:35;1.25;;;1.00;;
42742;SDS011;28397;44.552;-0.848;2023-04-29T01:47:02;0.98;;;0.95;;
42742;SDS011;28397;44.552;-0.848;2023-04-29T01:49:29;1.00;;;0.90;;
42742;SDS011;28397;44.552;-0.848;2023-04-29T01:51:59;1.48;;;0.95;;
42742;SDS011;28397;44.552;-0.848;2023-04-29T01:54:24;3.15;;;1.00;;
42742;SDS011;28397;44.552;-0.848;2023-04-29T01:56:50;2.40;;;1.00;;
42742;SDS011;28397;44.552;-0.848;2023-04-29T01:59:16;0.82;;;0.82;;
42742;SDS011;28397;44.552;-0.848;2023-04-29T02:01:41;2.05;;;1.00;;
42742;SDS011;28397;44.552;-0.848;2023-04-29T02:04:07;2.08;;;1.00;;
42742;SDS011;28397;44.552;-0.848;2023-04-29T02:06:33;1.88;;;1.00;;
42742;SDS011;28397;44.552;-0.848;2023-04-29T02:08:59;0.90;;;0.82;;
42742;SDS011;28397;44.552;-0.848;2023-04-29T02:11:24;0.88;;;0.80;;
42742;SDS011;28397;44.552;-0.848;2023-04-29T02:13:50;1.27;;;0.90;;
42742;SDS011;28397;44.552;-0.848;2023-04-29T02:16:16;1.70;;;0.93;;
42742;SDS011;28397;44.552;-0.848;2023-04-29T02:18:42;2.25;;;1.00;;
42742;SDS011;28397;44.552;-0.848;2023-04-29T02:21:08;1.23;;;0.90;;
42742;SDS011;28397;44.552;-0.848;2023-04-29T02:23:34;2.47;;;1.10;;
42742;SDS011;28397;44.552;-0.848;2023-04-29T02:26:00;1.88;;;1.00;;
42742;SDS011;28397;44.552;-0.848;2023-04-29T02:28:27;2.33;;;1.08;;
42742;SDS011;28397;44.552;-0.848;2023-04-29T02:30:53;2.45;;;1.10;;
42742;SDS011;28397;44.552;-0.848;2023-04-29T02:33:19;2.15;;;1.08;;
42742;SDS011;28397;44.552;-0.848;2023-04-29T02:35:44;2.10;;;0.90;;
42742;SDS011;28397;44.552;-0.848;2023-04-29T02:38:10;1.08;;;0.93;;
42742;SDS011;28397;44.552;-0.848;2023-04-29T02:40:43;1.88;;;1.00;;
42742;SDS011;28397;44.552;-0.848;2023-04-29T02:43:09;1.30;;;1.20;;
42742;SDS011;28397;44.552;-0.848;2023-04-29T02:45:36;1.05;;;0.90;;
42742;SDS011;28397;44.552;-0.848;2023-04-29T02:48:02;1.02;;;0.90;;
42742;SDS011;28397;44.552;-0.848;2023-04-29T02:50:29;2.53;;;1.17;;
42742;SDS011;28397;44.552;-0.848;2023-04-29T02:52:54;4.50;;;1.10;;
42742;SDS011;28397;44.552;-0.848;2023-04-29T02:55:20;1.90;;;1.10;;
42742;SDS011;28397;44.552;-0.848;2023-04-29T02:57:46;3.35;;;1.50;;
42742;SDS011;28397;44.552;-0.848;2023-04-29T03:00:11;3.90;;;1.25;;
42742;SDS011;28397;44.552;-0.848;2023-04-29T03:02:37;2.58;;;1.30;;
42742;SDS011;28397;44.552;-0.848;2023-04-29T03:05:03;1.50;;;1.20;;
42742;SDS011;28397;44.552;-0.848;2023-04-29T03:07:30;1.92;;;1.05;;
42742;SDS011;28397;44.552;-0.848;2023-04-29T03:09:56;1.70;;;1.20;;
42742;SDS011;28397;44.552;-0.848;2023-04-29T03:12:22;2.08;;;1.00;;
42742;SDS011;28397;44.552;-0.848;2023-04-29T03:14:47;3.63;;;1.08;;
42742;SDS011;28397;44.552;-0.848;2023-04-29T03:17:13;2.97;;;1.23;;
42742;SDS011;28397;44.552;-0.848;2023-04-29T03:19:39;2.40;;;1.10;;
42742;SDS011;28397;44.552;-0.848;2023-04-29T03:22:05;1.10;;;1.00;;
42742;SDS011;28397;44.552;-0.848;2023-04-29T03:24:33;1.60;;;1.30;;
42742;SDS011;28397;44.552;-0.848;2023-04-29T03:26:59;1.02;;;0.90;;
42742;SDS011;28397;44.552;-0.848;2023-04-29T03:29:25;1.23;;;0.93;;
42742;SDS011;28397;44.552;-0.848;2023-04-29T03:31:52;2.25;;;1.08;;
42742;SDS011;28397;44.552;-0.848;2023-04-29T03:34:18;1.00;;;0.90;;
42742;SDS011;28397;44.552;-0.848;2023-04-29T03:36:44;1.90;;;0.90;;
42742;SDS011;28397;44.552;-0.848;2023-04-29T03:39:10;2.17;;;0.90;;
42742;SDS011;28397;44.552;-0.848;2023-04-29T03:41:38;1.70;;;0.90;;
42742;SDS011;28397;44.552;-0.848;2023-04-29T03:44:04;3.53;;;1.10;;
42742;SDS011;28397;44.552;-0.848;2023-04-29T03:46:30;2.10;;;1.15;;
42742;SDS011;28397;44.552;-0.848;2023-04-29T03:48:55;1.98;;;1.10;;
42742;SDS011;28397;44.552;-0.848;2023-04-29T03:51:22;2.47;;;1.20;;
42742;SDS011;28397;44.552;-0.848;2023-04-29T03:53:48;1.02;;;0.90;;
42742;SDS011;28397;44.552;-0.848;2023-04-29T03:56:14;1.10;;;1.00;;
42742;SDS011;28397;44.552;-0.848;2023-04-29T03:58:40;2.90;;;1.30;;
42742;SDS011;28397;44.552;-0.848;2023-04-29T04:01:06;1.75;;;1.00;;
42742;SDS011;28397;44.552;-0.848;2023-04-29T04:03:32;2.50;;;1.00;;
42742;SDS011;28397;44.552;-0.848;2023-04-29T04:05:57;3.50;;;0.98;;
42742;SDS011;28397;44.552;-0.848;2023-04-29T04:08:23;2.58;;;1.05;;
42742;SDS011;28397;44.552;-0.848;2023-04-29T04:10:49;1.17;;;1.00;;
42742;SDS011;28397;44.552;-0.848;2023-04-29T04:13:15;1.88;;;1.10;;
42742;SDS011;28397;44.552;-0.848;2023-04-29T04:15:40;1.00;;;0.90;;
42742;SDS011;28397;44.552;-0.848;2023-04-29T04:18:06;1.65;;;1.00;;
42742;SDS011;28397;44.552;-0.848;2023-04-29T04:20:32;1.45;;;1.00;;
42742;SDS011;28397;44.552;-0.848;2023-04-29T04:23:00;2.72;;;1.30;;
42742;SDS011;28397;44.552;-0.848;2023-04-29T04:25:26;1.75;;;1.08;;
42742;SDS011;28397;44.552;-0.848;2023-04-29T04:27:52;1.70;;;1.25;;
42742;SDS011;28397;44.552;-0.848;2023-04-29T04:30:18;2.45;;;1.00;;
42742;SDS011;28397;44.552;-0.848;2023-04-29T04:32:44;1.63;;;1.10;;
42742;SDS011;28397;44.552;-0.848;2023-04-29T04:35:10;1.65;;;1.20;;
42742;SDS011;28397;44.552;-0.848;2023-04-29T04:37:37;2.60;;;1.20;;
42742;SDS011;28397;44.552;-0.848;2023-04-29T04:40:02;3.03;;;1.10;;
42742;SDS011;28397;44.552;-0.848;2023-04-29T04:42:28;1.20;;;1.10;;
42742;SDS011;28397;44.552;-0.848;2023-04-29T04:44:54;1.30;;;1.20;;
42742;SDS011;28397;44.552;-0.848;2023-04-29T04:47:21;2.63;;;1.00;;
42742;SDS011;28397;44.552;-0.848;2023-04-29T04:49:46;1.35;;;1.25;;
42742;SDS011;28397;44.552;-0.848;2023-04-29T04:52:13;1.65;;;1.10;;
42742;SDS011;28397;44.552;-0.848;2023-04-29T04:54:39;2.05;;;1.20;;
42742;SDS011;28397;44.552;-0.848;2023-04-29T04:57:05;1.20;;;1.10;;
42742;SDS011;28397;44.552;-0.848;2023-04-29T04:59:31;1.95;;;1.40;;
42742;SDS011;28397;44.552;-0.848;2023-04-29T05:01:57;1.90;;;1.27;;
42742;SDS011;28397;44.552;-0.848;2023-04-29T05:04:23;1.42;;;1.20;;
42742;SDS011;28397;44.552;-0.848;2023-04-29T05:06:49;3.00;;;1.30;;
42742;SDS011;28397;44.552;-0.848;2023-04-29T05:09:15;2.38;;;1.38;;
42742;SDS011;28397;44.552;-0.848;2023-04-29T05:11:40;2.30;;;1.40;;
42742;SDS011;28397;44.552;-0.848;2023-04-29T05:14:06;1.92;;;1.40;;
42742;SDS011;28397;44.552;-0.848;2023-04-29T05:16:32;1.58;;;1.40;;
42742;SDS011;28397;44.552;-0.848;2023-04-29T05:18:57;2.15;;;1.52;;
42742;SDS011;28397;44.552;-0.848;2023-04-29T05:21:23;1.35;;;1.25;;
42742;SDS011;28397;44.552;-0.848;2023-04-29T05:23:49;1.60;;;1.50;;
42742;SDS011;28397;44.552;-0.848;2023-04-29T05:26:15;3.08;;;1.52;;
42742;SDS011;28397;44.552;-0.848;2023-04-29T05:28:40;7.88;;;2.22;;
42742;SDS011;28397;44.552;-0.848;2023-04-29T05:31:06;8.65;;;2.40;;
42742;SDS011;28397;44.552;-0.848;2023-04-29T05:33:32;8.05;;;2.60;;
42742;SDS011;28397;44.552;-0.848;2023-04-29T05:35:57;7.45;;;3.08;;
42742;SDS011;28397;44.552;-0.848;2023-04-29T05:38:23;9.38;;;3.08;;
42742;SDS011;28397;44.552;-0.848;2023-04-29T05:40:53;10.07;;;2.97;;
42742;SDS011;28397;44.552;-0.848;2023-04-29T05:43:22;6.18;;;2.85;;
42742;SDS011;28397;44.552;-0.848;2023-04-29T05:45:48;7.68;;;2.75;;
42742;SDS011;28397;44.552;-0.848;2023-04-29T05:48:14;8.35;;;3.13;;
42742;SDS011;28397;44.552;-0.848;2023-04-29T05:50:40;6.45;;;2.95;;
42742;SDS011;28397;44.552;-0.848;2023-04-29T05:53:06;7.10;;;2.85;;
42742;SDS011;28397;44.552;-0.848;2023-04-29T05:55:31;6.72;;;2.83;;
42742;SDS011;28397;44.552;-0.848;2023-04-29T05:57:57;8.88;;;3.05;;
42742;SDS011;28397;44.552;-0.848;2023-04-29T06:00:23;5.90;;;2.50;;
42742;SDS011;28397;44.552;-0.848;2023-04-29T06:02:48;6.45;;;2.53;;
42742;SDS011;28397;44.552;-0.848;2023-04-29T06:05:14;7.50;;;2.60;;
42742;SDS011;28397;44.552;-0.848;2023-04-29T06:07:41;9.20;;;2.47;;
42742;SDS011;28397;44.552;-0.848;2023-04-29T06:10:07;7.70;;;2.70;;
42742;SDS011;28397;44.552;-0.848;2023-04-29T06:12:33;8.68;;;2.63;;
42742;SDS011;28397;44.552;-0.848;2023-04-29T06:14:59;6.18;;;2.60;;
42742;SDS011;28397;44.552;-0.848;2023-04-29T06:17:24;5.35;;;2.63;;
42742;SDS011;28397;44.552;-0.848;2023-04-29T06:19:53;7.93;;;2.63;;
42742;SDS011;28397;44.552;-0.848;2023-04-29T06:22:19;6.15;;;2.75;;
42742;SDS011;28397;44.552;-0.848;2023-04-29T06:24:45;6.95;;;2.90;;
42742;SDS011;28397;44.552;-0.848;2023-04-29T06:27:11;6.90;;;2.47;;
42742;SDS011;28397;44.552;-0.848;2023-04-29T06:29:37;6.28;;;2.70;;
42742;SDS011;28397;44.552;-0.848;2023-04-29T06:32:03;10.95;;;2.90;;
42742;SDS011;28397;44.552;-0.848;2023-04-29T06:34:28;5.22;;;2.70;;
42742;SDS011;28397;44.552;-0.848;2023-04-29T06:36:54;9.05;;;2.58;;
42742;SDS011;28397;44.552;-0.848;2023-04-29T06:39:20;8.52;;;2.80;;
42742;SDS011;28397;44.552;-0.848;2023-04-29T06:41:46;7.82;;;2.90;;
42742;SDS011;28397;44.552;-0.848;2023-04-29T06:44:11;5.78;;;3.00;;
42742;SDS011;28397;44.552;-0.848;2023-04-29T06:46:37;7.95;;;3.00;;
42742;SDS011;28397;44.552;-0.848;2023-04-29T06:49:03;8.07;;;2.90;;
42742;SDS011;28397;44.552;-0.848;2023-04-29T06:51:30;7.03;;;2.83;;
42742;SDS011;28397;44.552;-0.848;2023-04-29T06:53:56;3.88;;;2.50;;
42742;SDS011;28397;44.552;-0.848;2023-04-29T06:56:22;3.33;;;2.20;;
42742;SDS011;28397;44.552;-0.848;2023-04-29T06:58:47;5.70;;;2.53;;
42742;SDS011;28397;44.552;-0.848;2023-04-29T07:01:13;5.22;;;2.30;;
42742;SDS011;28397;44.552;-0.848;2023-04-29T07:03:39;4.15;;;2.58;;
42742;SDS011;28397;44.552;-0.848;2023-04-29T07:06:04;3.63;;;2.17;;
42742;SDS011;28397;44.552;-0.848;2023-04-29T07:08:30;6.65;;;2.15;;
42742;SDS011;28397;44.552;-0.848;2023-04-29T07:10:56;3.83;;;2.20;;
42742;SDS011;28397;44.552;-0.848;2023-04-29T07:13:23;6.85;;;1.90;;
42742;SDS011;28397;44.552;-0.848;2023-04-29T07:15:49;4.70;;;2.10;;
42742;SDS011;28397;44.552;-0.848;2023-04-29T07:18:15;4.97;;;2.03;;
42742;SDS011;28397;44.552;-0.848;2023-04-29T07:20:40;4.03;;;2.17;;
42742;SDS011;28397;44.552;-0.848;2023-04-29T07:23:07;3.13;;;2.05;;
42742;SDS011;28397;44.552;-0.848;2023-04-29T07:25:33;3.40;;;1.83;;
42742;SDS011;28397;44.552;-0.848;2023-04-29T07:27:58;2.97;;;2.10;;
42742;SDS011;28397;44.552;-0.848;2023-04-29T07:30:24;3.67;;;2.10;;
42742;SDS011;28397;44.552;-0.848;2023-04-29T07:32:50;2.45;;;2.05;;
42742;SDS011;28397;44.552;-0.848;2023-04-29T07:35:15;3.47;;;2.08;;
42742;SDS011;28397;44.552;-0.848;2023-04-29T07:37:41;3.60;;;2.10;;
42742;SDS011;28397;44.552;-0.848;2023-04-29T07:40:07;3.97;;;2.08;;
42742;SDS011;28397;44.552;-0.848;2023-04-29T07:42:34;2.65;;;1.77;;
42742;SDS011;28397;44.552;-0.848;2023-04-29T07:44:59;4.60;;;2.13;;
42742;SDS011;28397;44.552;-0.848;2023-04-29T07:47:25;4.20;;;2.00;;
42742;SDS011;28397;44.552;-0.848;2023-04-29T07:49:51;4.30;;;1.90;;
42742;SDS011;28397;44.552;-0.848;2023-04-29T07:52:17;3.53;;;2.15;;
42742;SDS011;28397;44.552;-0.848;2023-04-29T07:54:42;4.55;;;2.10;;
42742;SDS011;28397;44.552;-0.848;2023-04-29T07:57:08;2.83;;;1.80;;
42742;SDS011;28397;44.552;-0.848;2023-04-29T07:59:34;3.88;;;1.88;;
42742;SDS011;28397;44.552;-0.848;2023-04-29T08:01:59;4.30;;;2.30;;
42742;SDS011;28397;44.552;-0.848;2023-04-29T08:04:25;5.50;;;2.20;;
42742;SDS011;28397;44.552;-0.848;2023-04-29T08:06:51;3.10;;;2.00;;
42742;SDS011;28397;44.552;-0.848;2023-04-29T08:09:17;2.70;;;1.90;;
42742;SDS011;28397;44.552;-0.848;2023-04-29T08:11:42;5.18;;;2.00;;
42742;SDS011;28397;44.552;-0.848;2023-04-29T08:14:09;2.10;;;1.90;;
42742;SDS011;28397;44.552;-0.848;2023-04-29T08:16:35;2.67;;;1.67;;
42742;SDS011;28397;44.552;-0.848;2023-04-29T08:19:01;2.78;;;1.83;;
42742;SDS011;28397;44.552;-0.848;2023-04-29T08:21:26;4.30;;;2.30;;
42742;SDS011;28397;44.552;-0.848;2023-04-29T08:23:52;2.95;;;1.92;;
42742;SDS011;28397;44.552;-0.848;2023-04-29T08:26:19;2.88;;;1.90;;
42742;SDS011;28397;44.552;-0.848;2023-04-29T08:28:46;2.60;;;1.90;;
42742;SDS011;28397;44.552;-0.848;2023-04-29T08:31:15;2.42;;;1.77;;
42742;SDS011;28397;44.552;-0.848;2023-04-29T08:33:42;2.03;;;1.80;;
42742;SDS011;28397;44.552;-0.848;2023-04-29T08:36:07;10.63;;;3.60;;
42742;SDS011;28397;44.552;-0.848;2023-04-29T08:38:33;6.20;;;2.70;;
42742;SDS011;28397;44.552;-0.848;2023-04-29T08:40:59;5.38;;;2.17;;
42742;SDS011;28397;44.552;-0.848;2023-04-29T08:43:25;3.30;;;2.10;;
42742;SDS011;28397;44.552;-0.848;2023-04-29T08:45:51;3.42;;;1.90;;
42742;SDS011;28397;44.552;-0.848;2023-04-29T08:48:17;2.10;;;1.90;;
42742;SDS011;28397;44.552;-0.848;2023-04-29T08:50:43;3.47;;;2.00;;
42742;SDS011;28397;44.552;-0.848;2023-04-29T08:53:10;1.77;;;1.58;;
42742;SDS011;28397;44.552;-0.848;2023-04-29T08:55:41;3.97;;;1.70;;
42742;SDS011;28397;44.552;-0.848;2023-04-29T08:58:08;2.65;;;1.90;;
42742;SDS011;28397;44.552;-0.848;2023-04-29T09:00:35;3.20;;;1.85;;
42742;SDS011;28397;44.552;-0.848;2023-04-29T09:03:03;13.48;;;3.00;;
42742;SDS011;28397;44.552;-0.848;2023-04-29T09:05:54;4.32;;;1.92;;
42742;SDS011;28397;44.552;-0.848;2023-04-29T09:08:23;4.40;;;1.90;;
42742;SDS011;28397;44.552;-0.848;2023-04-29T09:10:50;2.53;;;1.80;;
42742;SDS011;28397;44.552;-0.848;2023-04-29T09:15:49;2.20;;;1.50;;
42742;SDS011;28397;44.552;-0.848;2023-04-29T09:21:16;2.40;;;1.90;;
42742;SDS011;28397;44.552;-0.848;2023-04-29T09:23:54;1.70;;;1.60;;
42742;SDS011;28397;44.552;-0.848;2023-04-29T09:26:22;3.35;;;1.95;;
42742;SDS011;28397;44.552;-0.848;2023-04-29T09:29:05;5.68;;;1.73;;
42742;SDS011;28397;44.552;-0.848;2023-04-29T09:31:36;6.18;;;1.98;;
42742;SDS011;28397;44.552;-0.848;2023-04-29T09:34:03;5.60;;;2.00;;
42742;SDS011;28397;44.552;-0.848;2023-04-29T09:39:03;5.72;;;2.33;;
42742;SDS011;28397;44.552;-0.848;2023-04-29T09:41:35;3.17;;;2.00;;
42742;SDS011;28397;44.552;-0.848;2023-04-29T09:44:22;2.05;;;1.70;;
42742;SDS011;28397;44.552;-0.848;2023-04-29T09:46:55;3.15;;;1.65;;
42742;SDS011;28397;44.552;-0.848;2023-04-29T09:49:23;3.97;;;1.70;;
42742;SDS011;28397;44.552;-0.848;2023-04-29T09:51:54;2.88;;;1.70;;
42742;SDS011;28397;44.552;-0.848;2023-04-29T09:54:25;2.20;;;1.73;;
42742;SDS011;28397;44.552;-0.848;2023-04-29T09:56:54;4.13;;;1.88;;
42742;SDS011;28397;44.552;-0.848;2023-04-29T09:59:21;3.97;;;1.80;;
42742;SDS011;28397;44.552;-0.848;2023-04-29T10:01:51;5.70;;;2.92;;
42742;SDS011;28397;44.552;-0.848;2023-04-29T10:04:18;6.47;;;2.22;;
42742;SDS011;28397;44.552;-0.848;2023-04-29T10:06:47;3.95;;;1.77;;
42742;SDS011;28397;44.552;-0.848;2023-04-29T10:09:15;5.90;;;1.90;;
42742;SDS011;28397;44.552;-0.848;2023-04-29T10:11:45;3.85;;;1.80;;
42742;SDS011;28397;44.552;-0.848;2023-04-29T10:14:14;2.45;;;1.58;;
42742;SDS011;28397;44.552;-0.848;2023-04-29T10:16:45;4.00;;;1.77;;
42742;SDS011;28397;44.552;-0.848;2023-04-29T10:22:06;2.97;;;1.63;;
42742;SDS011;28397;44.552;-0.848;2023-04-29T10:24:36;3.55;;;1.58;;
42742;SDS011;28397;44.552;-0.848;2023-04-29T10:27:02;2.38;;;1.83;;
42742;SDS011;28397;44.552;-0.848;2023-04-29T10:29:36;2.47;;;1.80;;
42742;SDS011;28397;44.552;-0.848;2023-04-29T10:32:06;3.55;;;1.80;;
42742;SDS011;28397;44.552;-0.848;2023-04-29T10:34:33;2.10;;;1.70;;
42742;SDS011;28397;44.552;-0.848;2023-04-29T10:37:03;3.45;;;1.80;;
42742;SDS011;28397;44.552;-0.848;2023-04-29T10:39:41;2.83;;;2.08;;
42742;SDS011;28397;44.552;-0.848;2023-04-29T10:51:12;2.60;;;1.88;;
42742;SDS011;28397;44.552;-0.848;2023-04-29T10:53:13;3.15;;;1.90;;
42742;SDS011;28397;44.552;-0.848;2023-04-29T10:55:40;2.95;;;1.88;;
42742;SDS011;28397;44.552;-0.848;2023-04-29T11:01:07;3.08;;;1.70;;
42742;SDS011;28397;44.552;-0.848;2023-04-29T11:03:45;3.22;;;1.98;;
42742;SDS011;28397;44.552;-0.848;2023-04-29T11:06:46;4.13;;;2.15;;
42742;SDS011;28397;44.552;-0.848;2023-04-29T11:14:13;2.38;;;1.70;;
42742;SDS011;28397;44.552;-0.848;2023-04-29T11:16:46;3.63;;;2.10;;
42742;SDS011;28397;44.552;-0.848;2023-04-29T11:19:14;4.20;;;2.00;;
42742;SDS011;28397;44.552;-0.848;2023-04-29T11:21:40;2.50;;;1.85;;
42742;SDS011;28397;44.552;-0.848;2023-04-29T11:24:06;5.05;;;3.00;;
42742;SDS011;28397;44.552;-0.848;2023-04-29T11:26:35;7.55;;;5.40;;
42742;SDS011;28397;44.552;-0.848;2023-04-29T11:29:01;6.03;;;3.60;;
42742;SDS011;28397;44.552;-0.848;2023-04-29T11:31:30;4.40;;;3.17;;
42742;SDS011;28397;44.552;-0.848;2023-04-29T11:33:57;3.67;;;2.53;;
42742;SDS011;28397;44.552;-0.848;2023-04-29T11:36:23;3.75;;;2.33;;
42742;SDS011;28397;44.552;-0.848;2023-04-29T11:38:49;4.45;;;2.00;;
42742;SDS011;28397;44.552;-0.848;2023-04-29T11:41:15;3.70;;;2.58;;
42742;SDS011;28397;44.552;-0.848;2023-04-29T11:43:41;4.93;;;2.90;;
42742;SDS011;28397;44.552;-0.848;2023-04-29T11:46:13;4.75;;;1.90;;
42742;SDS011;28397;44.552;-0.848;2023-04-29T11:48:46;2.72;;;1.40;;
42742;SDS011;28397;44.552;-0.848;2023-04-29T11:51:13;1.42;;;1.20;;
42742;SDS011;28397;44.552;-0.848;2023-04-29T11:53:39;4.05;;;1.90;;
42742;SDS011;28397;44.552;-0.848;2023-04-29T11:56:06;2.17;;;1.38;;
42742;SDS011;28397;44.552;-0.848;2023-04-29T11:58:33;2.70;;;1.70;;
42742;SDS011;28397;44.552;-0.848;2023-04-29T12:00:59;4.15;;;2.88;;
42742;SDS011;28397;44.552;-0.848;2023-04-29T12:03:26;4.68;;;3.28;;
42742;SDS011;28397;44.552;-0.848;2023-04-29T12:05:53;4.82;;;4.10;;
42742;SDS011;28397;44.552;-0.848;2023-04-29T12:08:19;3.70;;;1.60;;
42742;SDS011;28397;44.552;-0.848;2023-04-29T12:10:48;4.50;;;2.53;;
42742;SDS011;28397;44.552;-0.848;2023-04-29T12:13:16;4.70;;;2.20;;
42742;SDS011;28397;44.552;-0.848;2023-04-29T12:15:45;10.93;;;4.10;;
42742;SDS011;28397;44.552;-0.848;2023-04-29T12:18:13;6.47;;;3.22;;
42742;SDS011;28397;44.552;-0.848;2023-04-29T12:20:39;5.50;;;1.90;;
42742;SDS011;28397;44.552;-0.848;2023-04-29T12:23:15;9.05;;;4.20;;
42742;SDS011;28397;44.552;-0.848;2023-04-29T12:26:04;6.43;;;3.67;;
42742;SDS011;28397;44.552;-0.848;2023-04-29T12:28:28;5.15;;;2.25;;
42742;SDS011;28397;44.552;-0.848;2023-04-29T12:30:55;4.10;;;1.40;;
42742;SDS011;28397;44.552;-0.848;2023-04-29T12:33:26;6.28;;;1.88;;
42742;SDS011;28397;44.552;-0.848;2023-04-29T12:35:54;5.57;;;1.55;;
42742;SDS011;28397;44.552;-0.848;2023-04-29T12:38:21;2.70;;;1.50;;
42742;SDS011;28397;44.552;-0.848;2023-04-29T12:40:50;4.63;;;2.90;;
42742;SDS011;28397;44.552;-0.848;2023-04-29T12:43:16;2.05;;;1.60;;
42742;SDS011;28397;44.552;-0.848;2023-04-29T12:45:43;3.85;;;1.55;;
42742;SDS011;28397;44.552;-0.848;2023-04-29T12:48:08;2.83;;;1.60;;
42742;SDS011;28397;44.552;-0.848;2023-04-29T12:50:37;3.85;;;1.63;;
42742;SDS011;28397;44.552;-0.848;2023-04-29T12:53:03;6.75;;;1.65;;
42742;SDS011;28397;44.552;-0.848;2023-04-29T12:55:34;3.78;;;1.60;;
42742;SDS011;28397;44.552;-0.848;2023-04-29T12:58:02;3.72;;;1.48;;
42742;SDS011;28397;44.552;-0.848;2023-04-29T13:00:28;3.67;;;1.60;;
42742;SDS011;28397;44.552;-0.848;2023-04-29T13:02:54;4.80;;;1.77;;
42742;SDS011;28397;44.552;-0.848;2023-04-29T13:05:20;3.42;;;1.80;;
42742;SDS011;28397;44.552;-0.848;2023-04-29T13:07:46;4.00;;;1.65;;
42742;SDS011;28397;44.552;-0.848;2023-04-29T13:10:13;3.13;;;1.60;;
42742;SDS011;28397;44.552;-0.848;2023-04-29T13:12:39;1.88;;;1.30;;
42742;SDS011;28397;44.552;-0.848;2023-04-29T13:15:05;2.85;;;1.50;;
42742;SDS011;28397;44.552;-0.848;2023-04-29T13:17:34;3.40;;;1.60;;
42742;SDS011;28397;44.552;-0.848;2023-04-29T13:20:01;5.32;;;1.88;;
42742;SDS011;28397;44.552;-0.848;2023-04-29T13:22:27;2.75;;;1.70;;
42742;SDS011;28397;44.552;-0.848;2023-04-29T13:24:53;3.22;;;1.80;;
42742;SDS011;28397;44.552;-0.848;2023-04-29T13:27:19;1.65;;;1.50;;
42742;SDS011;28397;44.552;-0.848;2023-04-29T13:29:44;2.33;;;1.50;;
42742;SDS011;28397;44.552;-0.848;2023-04-29T13:32:10;4.00;;;1.50;;
42742;SDS011;28397;44.552;-0.848;2023-04-29T13:34:36;3.35;;;1.70;;
42742;SDS011;28397;44.552;-0.848;2023-04-29T13:37:02;3.55;;;1.38;;
42742;SDS011;28397;44.552;-0.848;2023-04-29T13:39:28;3.65;;;1.70;;
42742;SDS011;28397;44.552;-0.848;2023-04-29T13:41:53;2.65;;;1.48;;
42742;SDS011;28397;44.552;-0.848;2023-04-29T13:44:19;2.92;;;1.60;;
42742;SDS011;28397;44.552;-0.848;2023-04-29T13:46:45;3.28;;;1.50;;
42742;SDS011;28397;44.552;-0.848;2023-04-29T13:49:11;3.22;;;1.30;;
42742;SDS011;28397;44.552;-0.848;2023-04-29T13:51:37;3.47;;;1.30;;
42742;SDS011;28397;44.552;-0.848;2023-04-29T13:54:02;3.60;;;1.40;;
42742;SDS011;28397;44.552;-0.848;2023-04-29T13:56:28;3.78;;;2.00;;
42742;SDS011;28397;44.552;-0.848;2023-04-29T13:58:53;5.53;;;2.65;;
42742;SDS011;28397;44.552;-0.848;2023-04-29T14:01:19;2.40;;;1.80;;
42742;SDS011;28397;44.552;-0.848;2023-04-29T14:03:46;3.00;;;1.80;;
42742;SDS011;28397;44.552;-0.848;2023-04-29T14:06:12;2.58;;;1.60;;
42742;SDS011;28397;44.552;-0.848;2023-04-29T14:08:37;3.28;;;1.90;;
42742;SDS011;28397;44.552;-0.848;2023-04-29T14:11:03;4.05;;;1.88;;
42742;SDS011;28397;44.552;-0.848;2023-04-29T14:13:29;3.50;;;1.70;;
42742;SDS011;28397;44.552;-0.848;2023-04-29T14:15:55;4.88;;;1.90;;
42742;SDS011;28397;44.552;-0.848;2023-04-29T14:18:21;2.65;;;1.80;;
42742;SDS011;28397;44.552;-0.848;2023-04-29T14:20:46;3.58;;;1.88;;
42742;SDS011;28397;44.552;-0.848;2023-04-29T14:23:12;3.17;;;1.90;;
42742;SDS011;28397;44.552;-0.848;2023-04-29T14:25:38;3.50;;;1.80;;
42742;SDS011;28397;44.552;-0.848;2023-04-29T14:28:03;3.13;;;2.10;;
42742;SDS011;28397;44.552;-0.848;2023-04-29T14:30:29;5.47;;;2.20;;
42742;SDS011;28397;44.552;-0.848;2023-04-29T14:32:55;3.92;;;2.15;;
42742;SDS011;28397;44.552;-0.848;2023-04-29T14:35:21;6.88;;;2.95;;
42742;SDS011;28397;44.552;-0.848;2023-04-29T14:37:47;4.20;;;2.80;;
42742;SDS011;28397;44.552;-0.848;2023-04-29T14:40:14;3.72;;;2.63;;
42742;SDS011;28397;44.552;-0.848;2023-04-29T14:42:40;7.15;;;3.22;;
42742;SDS011;28397;44.552;-0.848;2023-04-29T14:45:05;6.35;;;3.58;;
42742;SDS011;28397;44.552;-0.848;2023-04-29T14:47:32;6.53;;;3.85;;
42742;SDS011;28397;44.552;-0.848;2023-04-29T14:49:57;5.47;;;3.50;;
42742;SDS011;28397;44.552;-0.848;2023-04-29T14:52:23;9.70;;;3.70;;
42742;SDS011;28397;44.552;-0.848;2023-04-29T14:54:49;6.15;;;3.88;;
42742;SDS011;28397;44.552;-0.848;2023-04-29T14:57:15;5.88;;;4.20;;
42742;SDS011;28397;44.552;-0.848;2023-04-29T14:59:40;5.45;;;3.53;;
42742;SDS011;28397;44.552;-0.848;2023-04-29T15:02:06;14.02;;;10.27;;
42742;SDS011;28397;44.552;-0.848;2023-04-29T15:04:32;7.82;;;5.65;;
42742;SDS011;28397;44.552;-0.848;2023-04-29T15:06:58;7.35;;;5.53;;
42742;SDS011;28397;44.552;-0.848;2023-04-29T15:09:24;10.18;;;9.07;;
42742;SDS011;28397;44.552;-0.848;2023-04-29T15:11:50;11.73;;;10.55;;
42742;SDS011;28397;44.552;-0.848;2023-04-29T15:14:16;13.02;;;10.32;;
42742;SDS011;28397;44.552;-0.848;2023-04-29T15:16:42;13.30;;;11.90;;